createdAt,value
2019-03-27T00:01:54.345Z,63.90
2019-03-27T00:04:59.303Z,63.90
2019-03-27T00:08:04.191Z,63.70
2019-03-27T00:11:09.171Z,63.70
2019-03-27T00:14:13.900Z,63.50
2019-03-27T00:17:18.843Z,63.50
2019-03-27T00:20:23.727Z,63.40
2019-03-27T00:23:29.699Z,63.50
2019-03-27T00:26:34.583Z,63.30
2019-03-27T00:29:39.544Z,63.10
2019-03-27T00:32:44.363Z,63.00
2019-03-27T00:35:49.273Z,63.00
2019-03-27T00:38:54.180Z,62.90
2019-03-27T00:41:59.137Z,62.80
2019-03-27T00:45:04.287Z,62.80
2019-03-27T00:48:09.264Z,62.50
2019-03-27T00:51:14.089Z,62.50
2019-03-27T00:54:18.997Z,62.50
2019-03-27T00:57:23.849Z,62.50
2019-03-27T01:00:42.385Z,62.40
2019-03-27T01:03:47.263Z,62.30
2019-03-27T01:06:52.119Z,62.30
2019-03-27T01:09:56.991Z,62.20
2019-03-27T01:13:01.961Z,62.10
2019-03-27T01:16:06.846Z,62.10
2019-03-27T01:19:11.770Z,61.70
2019-03-27T01:22:16.631Z,61.80
2019-03-27T01:25:21.467Z,61.80
2019-03-27T01:28:26.399Z,61.70
2019-03-27T01:31:31.322Z,61.70
2019-03-27T01:34:36.242Z,61.70
2019-03-27T01:37:41.150Z,61.50
2019-03-27T01:40:46.041Z,61.50
2019-03-27T01:43:50.959Z,61.60
2019-03-27T01:46:55.866Z,61.70
2019-03-27T01:50:00.794Z,61.70
2019-03-27T01:53:05.692Z,61.60
2019-03-27T01:56:10.622Z,61.70
2019-03-27T01:59:15.517Z,61.60
2019-03-27T02:02:20.382Z,61.80
2019-03-27T02:05:25.255Z,61.80
2019-03-27T02:08:30.098Z,61.80
2019-03-27T02:11:34.997Z,61.80
2019-03-27T02:14:40.153Z,61.90
2019-03-27T02:17:45.052Z,61.90
2019-03-27T02:20:49.978Z,61.70
2019-03-27T02:23:54.862Z,61.80
2019-03-27T02:26:59.934Z,61.80
2019-03-27T02:30:05.682Z,61.70
2019-03-27T02:33:10.591Z,61.70
2019-03-27T02:36:15.462Z,61.70
2019-03-27T02:39:20.391Z,61.60
2019-03-27T02:42:25.283Z,61.50
2019-03-27T02:45:30.211Z,61.50
2019-03-27T02:48:35.111Z,61.40
2019-03-27T02:51:40.048Z,61.40
2019-03-27T02:54:44.943Z,61.40
2019-03-27T02:57:49.856Z,61.30
2019-03-27T03:00:54.811Z,61.30
2019-03-27T03:03:59.721Z,62.20
2019-03-27T03:07:04.626Z,61.20
2019-03-27T03:10:10.834Z,61.20
2019-03-27T03:13:15.732Z,61.30
2019-03-27T03:16:20.774Z,61.30
2019-03-27T03:19:25.659Z,61.30
2019-03-27T03:22:30.588Z,61.10
2019-03-27T03:25:35.476Z,61.10
2019-03-27T03:28:40.398Z,60.90
2019-03-27T03:31:45.363Z,60.80
2019-03-27T03:34:50.282Z,60.70
2019-03-27T03:37:55.164Z,60.60
2019-03-27T03:41:00.093Z,60.50
2019-03-27T03:44:04.971Z,60.60
2019-03-27T03:47:10.003Z,60.50
2019-03-27T03:50:37.871Z,60.30
2019-03-27T03:53:42.914Z,60.30
2019-03-27T03:56:50.724Z,60.20
2019-03-27T03:59:55.652Z,60.30
2019-03-27T04:03:01.000Z,60.30
2019-03-27T04:06:09.834Z,60.30
2019-03-27T04:09:14.740Z,60.30
2019-03-27T04:12:19.721Z,60.00
2019-03-27T04:15:24.596Z,60.00
2019-03-27T04:18:29.513Z,60.00
2019-03-27T04:21:34.319Z,60.00
2019-03-27T04:24:39.251Z,59.90
2019-03-27T04:27:44.144Z,59.90
2019-03-27T04:30:50.093Z,59.90
2019-03-27T04:33:55.099Z,60.00
2019-03-27T04:37:00.053Z,60.00
2019-03-27T04:40:05.311Z,60.00
2019-03-27T04:43:10.576Z,60.00
2019-03-27T04:46:15.453Z,60.00
2019-03-27T04:49:20.291Z,60.00
2019-03-27T04:52:25.126Z,60.00
2019-03-27T04:55:30.030Z,60.00
2019-03-27T04:58:34.842Z,60.10
2019-03-27T05:01:39.743Z,60.20
2019-03-27T05:04:44.978Z,60.20
2019-03-27T05:07:49.807Z,60.30
2019-03-27T05:10:54.638Z,60.40
2019-03-27T05:13:59.574Z,60.60
2019-03-27T05:17:04.471Z,60.70
2019-03-27T05:20:10.626Z,60.90
2019-03-27T05:23:15.530Z,61.20
2019-03-27T05:26:20.484Z,61.10
2019-03-27T05:29:25.387Z,61.20
2019-03-27T05:32:30.288Z,61.50
2019-03-27T05:35:35.209Z,61.50
2019-03-27T05:38:40.052Z,61.80
2019-03-27T05:41:44.959Z,62.00
2019-03-27T05:44:49.813Z,62.10
2019-03-27T05:47:59.904Z,62.20
2019-03-27T05:51:01.283Z,62.30
2019-03-27T05:54:06.167Z,62.40
2019-03-27T05:57:11.362Z,62.50
2019-03-27T06:00:17.591Z,62.80
2019-03-27T06:03:22.518Z,62.90
2019-03-27T06:06:27.501Z,63.00
2019-03-27T06:09:32.423Z,63.10
2019-03-27T06:12:37.234Z,63.20
2019-03-27T06:15:44.963Z,63.30
2019-03-27T06:18:48.687Z,63.30
2019-03-27T06:21:53.620Z,63.30
2019-03-27T06:24:58.566Z,63.50
2019-03-27T06:28:03.495Z,63.60
2019-03-27T06:31:09.571Z,63.50
2019-03-27T06:34:14.586Z,63.60
2019-03-27T06:37:19.551Z,63.60
2019-03-27T06:40:24.410Z,63.50
2019-03-27T06:43:29.313Z,63.70
2019-03-27T06:46:34.258Z,63.50
2019-03-27T06:49:39.181Z,63.60
2019-03-27T06:52:44.255Z,63.40
2019-03-27T06:55:49.283Z,63.60
2019-03-27T06:58:55.099Z,63.20
2019-03-27T07:02:00.137Z,63.20
2019-03-27T07:05:07.420Z,62.70
2019-03-27T07:08:12.435Z,62.30
2019-03-27T07:11:17.385Z,62.40
2019-03-27T07:14:22.307Z,62.10
2019-03-27T07:17:27.237Z,61.80
2019-03-27T07:20:32.158Z,61.70
2019-03-27T07:23:37.416Z,61.70
2019-03-27T07:26:42.279Z,61.20
2019-03-27T07:29:47.200Z,61.00
2019-03-27T07:32:52.119Z,60.90
2019-03-27T07:35:57.126Z,60.90
2019-03-27T07:39:10.875Z,60.60
2019-03-27T07:42:08.644Z,60.20
2019-03-27T07:45:13.916Z,60.00
2019-03-27T07:48:18.786Z,59.50
2019-03-27T07:51:23.663Z,58.90
2019-03-27T07:54:28.503Z,59.20
2019-03-27T07:57:33.384Z,59.20
2019-03-27T08:00:38.314Z,58.70
2019-03-27T08:03:43.215Z,58.30
2019-03-27T08:06:48.140Z,57.60
2019-03-27T08:09:53.153Z,57.70
2019-03-27T08:12:58.123Z,57.20
2019-03-27T08:16:02.936Z,56.60
2019-03-27T08:19:08.294Z,56.70
2019-03-27T08:22:13.200Z,55.80
2019-03-27T08:25:18.301Z,55.60
2019-03-27T08:28:23.223Z,55.60
2019-03-27T08:31:28.085Z,55.40
2019-03-27T08:34:33.019Z,55.50
2019-03-27T08:37:38.158Z,55.20
2019-03-27T08:40:43.191Z,54.60
2019-03-27T08:43:48.062Z,54.10
2019-03-27T08:46:52.981Z,53.30
2019-03-27T08:49:57.866Z,54.00
2019-03-27T08:53:02.782Z,53.80
2019-03-27T08:56:07.700Z,54.40
2019-03-27T08:59:12.696Z,54.50
2019-03-27T09:02:19.447Z,53.40
2019-03-27T09:05:24.321Z,52.40
2019-03-27T09:08:29.276Z,52.90
2019-03-27T09:11:34.252Z,52.10
2019-03-27T09:14:39.191Z,52.10
2019-03-27T09:17:44.094Z,52.20
2019-03-27T09:20:49.067Z,50.90
2019-03-27T09:23:53.958Z,50.90
2019-03-27T09:26:58.915Z,50.40
2019-03-27T09:30:05.476Z,50.20
2019-03-27T09:33:10.432Z,49.70
2019-03-27T09:36:15.316Z,49.90
2019-03-27T09:39:20.254Z,48.90
2019-03-27T09:42:25.145Z,48.30
2019-03-27T09:45:30.078Z,48.30
2019-03-27T09:48:34.979Z,47.10
2019-03-27T09:51:39.936Z,46.20
2019-03-27T09:54:44.844Z,45.90
2019-03-27T09:57:49.777Z,45.60
2019-03-27T10:01:03.175Z,46.30
2019-03-27T10:04:08.112Z,45.50
2019-03-27T10:07:12.994Z,45.00
2019-03-27T10:10:17.861Z,44.60
2019-03-27T10:13:22.748Z,45.10
2019-03-27T10:16:27.676Z,45.00
2019-03-27T10:19:32.552Z,44.70
2019-03-27T10:22:37.481Z,44.20
2019-03-27T10:25:42.367Z,43.00
2019-03-27T10:28:47.213Z,42.40
2019-03-27T10:31:52.115Z,41.70
2019-03-27T10:34:57.071Z,42.30
2019-03-27T10:38:01.966Z,41.60
2019-03-27T10:41:06.918Z,41.40
2019-03-27T10:44:11.914Z,40.40
2019-03-27T10:47:16.896Z,40.30
2019-03-27T10:50:21.804Z,40.30
2019-03-27T10:53:26.729Z,39.80
2019-03-27T10:56:31.611Z,40.00
2019-03-27T10:59:36.543Z,39.20
2019-03-27T11:02:41.423Z,39.50
2019-03-27T11:05:46.376Z,38.50
2019-03-27T11:08:51.274Z,38.20
2019-03-27T11:11:56.228Z,38.30
2019-03-27T11:15:01.193Z,38.50
2019-03-27T11:18:06.259Z,37.20
2019-03-27T11:21:11.063Z,37.80
2019-03-27T11:24:16.023Z,37.00
2019-03-27T11:27:20.922Z,36.30
2019-03-27T11:30:35.804Z,36.40
2019-03-27T11:33:40.735Z,36.60
2019-03-27T11:36:45.675Z,36.90
2019-03-27T11:39:50.568Z,37.20
2019-03-27T11:42:55.440Z,36.60
2019-03-27T11:46:00.359Z,35.70
2019-03-27T11:49:05.318Z,35.40
2019-03-27T11:52:10.221Z,35.90
2019-03-27T11:55:15.147Z,35.00
2019-03-27T11:58:19.968Z,35.40
2019-03-27T12:01:24.833Z,35.10
2019-03-27T12:04:29.732Z,34.60
2019-03-27T12:07:34.682Z,34.40
2019-03-27T12:10:39.563Z,34.30
2019-03-27T12:13:44.435Z,33.50
2019-03-27T12:16:50.109Z,33.40
2019-03-27T12:19:55.176Z,33.00
2019-03-27T12:22:59.988Z,32.50
2019-03-27T12:26:05.439Z,32.10
2019-03-27T12:29:10.382Z,31.80
2019-03-27T12:32:15.267Z,31.90
2019-03-27T12:35:20.098Z,31.50
2019-03-27T12:38:26.259Z,31.70
2019-03-27T12:41:33.056Z,31.70
2019-03-27T12:44:37.718Z,31.10
2019-03-27T12:47:42.674Z,31.30
2019-03-27T12:50:47.607Z,31.70
2019-03-27T12:53:52.483Z,31.70
2019-03-27T12:56:57.429Z,30.30
2019-03-27T13:00:02.334Z,31.60
2019-03-27T13:03:07.363Z,31.10
2019-03-27T13:06:12.272Z,31.00
2019-03-27T13:09:17.200Z,31.00
2019-03-27T13:12:22.095Z,30.60
2019-03-27T13:15:26.948Z,30.60
2019-03-27T13:18:31.797Z,31.10
2019-03-27T13:21:36.716Z,31.00
2019-03-27T13:24:41.591Z,31.00
2019-03-27T13:27:47.616Z,30.30
2019-03-27T13:30:52.651Z,30.40
2019-03-27T13:33:57.502Z,31.00
2019-03-27T13:37:02.396Z,30.90
2019-03-27T13:40:07.938Z,31.30
2019-03-27T13:43:12.839Z,31.40
2019-03-27T13:46:17.790Z,31.30
2019-03-27T13:49:22.672Z,31.80
2019-03-27T13:52:27.521Z,31.00
2019-03-27T13:55:35.100Z,31.50
2019-03-27T13:58:39.016Z,31.70
2019-03-27T14:01:43.909Z,31.30
2019-03-27T14:04:48.872Z,31.40
2019-03-27T14:07:53.799Z,31.60
2019-03-27T14:10:58.744Z,31.40
2019-03-27T14:14:11.215Z,31.40
2019-03-27T14:17:10.519Z,31.10
2019-03-27T14:20:15.802Z,31.30
2019-03-27T14:23:20.728Z,31.60
2019-03-27T14:26:28.605Z,31.50
2019-03-27T14:29:33.620Z,31.70
2019-03-27T14:32:38.596Z,31.50
2019-03-27T14:35:43.652Z,31.60
2019-03-27T14:38:48.577Z,31.90
2019-03-27T14:41:53.615Z,31.50
2019-03-27T14:44:59.893Z,31.20
2019-03-27T14:48:05.156Z,31.80
2019-03-27T14:51:10.165Z,30.00
2019-03-27T14:54:15.111Z,30.40
2019-03-27T14:57:20.008Z,31.30
2019-03-27T15:00:25.260Z,31.90
2019-03-27T15:03:30.208Z,32.10
2019-03-27T15:06:35.156Z,31.30
2019-03-27T15:09:43.047Z,32.20
2019-03-27T15:12:47.918Z,32.40
2019-03-27T15:15:52.854Z,32.50
2019-03-27T15:18:57.826Z,32.50
2019-03-27T15:22:02.863Z,32.40
2019-03-27T15:25:08.208Z,31.40
2019-03-27T15:28:13.139Z,32.80
2019-03-27T15:31:20.791Z,33.10
2019-03-27T15:34:24.624Z,32.20
2019-03-27T15:37:29.502Z,33.10
2019-03-27T15:40:41.973Z,33.30
2019-03-27T15:43:48.624Z,33.90
2019-03-27T15:46:53.574Z,33.30
2019-03-27T15:49:58.547Z,33.70
2019-03-27T15:53:03.576Z,34.20
2019-03-27T15:56:08.504Z,33.70
2019-03-27T15:59:13.430Z,33.80
2019-03-27T16:02:18.384Z,34.10
2019-03-27T16:05:23.280Z,34.20
2019-03-27T16:08:28.201Z,34.60
2019-03-27T16:11:33.100Z,35.20
2019-03-27T16:14:38.046Z,35.40
2019-03-27T16:17:42.966Z,35.60
2019-03-27T16:20:48.118Z,35.60
2019-03-27T16:24:05.799Z,35.90
2019-03-27T16:27:04.598Z,36.30
2019-03-27T16:30:08.823Z,36.80
2019-03-27T16:33:14.051Z,37.10
2019-03-27T16:36:18.976Z,37.30
2019-03-27T16:39:23.942Z,37.70
2019-03-27T16:42:28.867Z,37.90
2019-03-27T16:45:33.880Z,38.10
2019-03-27T16:48:38.783Z,38.50
2019-03-27T16:51:43.747Z,38.90
2019-03-27T16:54:48.673Z,39.10
2019-03-27T16:57:53.543Z,39.40
2019-03-27T17:00:58.482Z,39.70
2019-03-27T17:04:03.452Z,40.00
2019-03-27T17:07:08.380Z,40.20
2019-03-27T17:10:13.614Z,40.50
2019-03-27T17:13:18.502Z,41.60
2019-03-27T17:16:23.440Z,41.80
2019-03-27T17:19:28.350Z,42.20
2019-03-27T17:22:33.280Z,42.40
2019-03-27T17:25:38.273Z,42.60
2019-03-27T17:28:43.188Z,43.00
2019-03-27T17:31:48.133Z,43.30
2019-03-27T17:34:53.055Z,43.60
2019-03-27T17:37:58.247Z,43.80
2019-03-27T17:41:03.230Z,44.00
2019-03-27T17:44:08.258Z,44.40
2019-03-27T17:47:13.215Z,44.60
2019-03-27T17:50:18.105Z,45.00
2019-03-27T17:53:31.388Z,45.10
2019-03-27T17:56:29.666Z,45.40
2019-03-27T17:59:34.602Z,45.70
2019-03-27T18:02:39.525Z,46.00
2019-03-27T18:05:47.610Z,46.40
2019-03-27T18:08:52.516Z,46.60
2019-03-27T18:11:57.390Z,47.00
2019-03-27T18:15:02.487Z,47.10
2019-03-27T18:18:07.775Z,47.50
2019-03-27T18:21:13.337Z,47.80
2019-03-27T18:24:18.258Z,48.10
2019-03-27T18:27:23.200Z,48.20
2019-03-27T18:30:28.132Z,48.50
2019-03-27T18:33:34.235Z,48.70
2019-03-27T18:36:39.290Z,48.80
2019-03-27T18:39:45.936Z,49.00
2019-03-27T18:42:50.864Z,49.10
2019-03-27T18:45:55.786Z,49.30
2019-03-27T18:49:00.734Z,49.40
2019-03-27T18:52:05.739Z,49.40
2019-03-27T18:55:11.237Z,49.40
2019-03-27T18:58:16.190Z,49.80
2019-03-27T19:01:21.252Z,49.80
2019-03-27T19:04:26.658Z,49.90
2019-03-27T19:07:31.817Z,49.90
2019-03-27T19:10:36.730Z,50.10
2019-03-27T19:13:41.652Z,50.40
2019-03-27T19:16:48.881Z,50.50
2019-03-27T19:19:56.058Z,50.70
2019-03-27T19:23:00.913Z,50.70
2019-03-27T19:26:05.893Z,51.10
2019-03-27T19:29:10.859Z,51.40
2019-03-27T19:32:15.816Z,51.50
2019-03-27T19:35:20.733Z,51.50
2019-03-27T19:38:25.701Z,51.60
2019-03-27T19:41:30.611Z,51.70
2019-03-27T19:44:36.036Z,51.80
2019-03-27T19:47:40.875Z,52.00
2019-03-27T19:50:46.002Z,52.00
2019-03-27T19:53:53.762Z,52.10
2019-03-27T19:56:58.717Z,52.10
2019-03-27T20:00:04.106Z,52.00
2019-03-27T20:03:09.114Z,52.20
2019-03-27T20:06:15.315Z,52.20
2019-03-27T20:09:20.371Z,52.20
2019-03-27T20:12:25.320Z,52.10
2019-03-27T20:15:30.296Z,52.20
2019-03-27T20:18:35.247Z,52.40
2019-03-27T20:21:41.287Z,52.40
2019-03-27T20:24:46.499Z,52.40
2019-03-27T20:27:51.486Z,52.70
2019-03-27T20:30:58.402Z,53.40
2019-03-27T20:34:04.358Z,52.60
2019-03-27T20:37:10.216Z,52.90
2019-03-27T20:40:15.765Z,52.70
2019-03-27T20:43:21.553Z,52.80
2019-03-27T20:46:29.364Z,52.80
2019-03-27T20:49:35.021Z,52.80
2019-03-27T20:52:39.975Z,52.90
2019-03-27T20:55:45.931Z,52.90
2019-03-27T20:58:51.771Z,53.20
2019-03-27T21:01:57.387Z,53.20
2019-03-27T21:05:02.625Z,53.20
2019-03-27T21:08:08.672Z,53.20
2019-03-27T21:11:14.841Z,53.40
2019-03-27T21:14:19.834Z,53.40
2019-03-27T21:17:25.031Z,53.40
2019-03-27T21:20:29.919Z,53.40
2019-03-27T21:23:34.847Z,53.60
2019-03-27T21:26:39.754Z,53.70
2019-03-27T21:29:44.694Z,53.70
2019-03-27T21:32:49.661Z,53.30
2019-03-27T21:35:54.618Z,53.70
2019-03-27T21:38:59.573Z,53.70
2019-03-27T21:42:04.535Z,53.90
2019-03-27T21:45:09.973Z,53.80
2019-03-27T21:48:14.852Z,53.80
2019-03-27T21:51:19.775Z,54.00
2019-03-27T21:54:24.718Z,53.90
2019-03-27T21:57:29.666Z,54.00
2019-03-27T22:00:38.894Z,54.10
2019-03-27T22:03:43.796Z,54.20
2019-03-27T22:06:48.741Z,54.10
2019-03-27T22:09:53.646Z,54.20
2019-03-27T22:12:58.592Z,54.20
2019-03-27T22:16:04.526Z,54.30
2019-03-27T22:19:09.764Z,54.30
2019-03-27T22:22:14.715Z,54.30
2019-03-27T22:25:19.631Z,54.30
2019-03-27T22:28:24.482Z,54.40
2019-03-27T22:31:29.419Z,54.30
2019-03-27T22:34:34.405Z,54.30
2019-03-27T22:37:39.351Z,54.40
2019-03-27T22:40:44.227Z,54.40
2019-03-27T22:43:49.085Z,54.40
2019-03-27T22:46:53.984Z,54.50
2019-03-27T22:49:58.841Z,54.70
2019-03-27T22:53:03.984Z,54.70
2019-03-27T22:56:08.891Z,55.00
2019-03-27T22:59:13.703Z,55.10
2019-03-27T23:02:18.644Z,55.10
2019-03-27T23:05:23.599Z,55.30
2019-03-27T23:08:28.454Z,55.40
2019-03-27T23:11:34.624Z,55.50
2019-03-27T23:14:39.666Z,55.50
2019-03-27T23:17:44.691Z,55.70
2019-03-27T23:20:49.551Z,56.00
2019-03-27T23:23:54.389Z,56.30
2019-03-27T23:26:59.334Z,56.30
2019-03-27T23:30:05.001Z,56.20
2019-03-27T23:33:09.935Z,56.20
2019-03-27T23:36:14.873Z,56.40
2019-03-27T23:39:19.826Z,56.30
2019-03-27T23:42:24.781Z,56.30
2019-03-27T23:45:29.721Z,56.40
2019-03-27T23:48:34.621Z,56.40
2019-03-27T23:51:39.539Z,56.50
2019-03-27T23:54:44.385Z,56.40
2019-03-27T23:57:49.342Z,56.50
